createdAt,value
2023-03-12T00:01:28.334Z,96635.44
2023-03-12T00:04:04.933Z,96645.34
2023-03-12T00:07:00.171Z,96643.94
2023-03-12T00:09:34.411Z,96640.78
2023-03-12T00:12:06.648Z,96650.44
2023-03-12T00:14:50.213Z,96652.22
2023-03-12T00:17:26.144Z,96657.19
2023-03-12T00:20:11.521Z,96658.91
2023-03-12T00:22:47.452Z,96658.00
2023-03-12T00:25:21.324Z,96661.53
2023-03-12T00:27:53.039Z,96657.38
2023-03-12T00:30:29.150Z,96655.16
2023-03-12T00:33:00.923Z,96654.81
2023-03-12T00:35:35.683Z,96656.19
2023-03-12T00:38:12.778Z,96660.06
2023-03-12T00:40:49.487Z,96659.88
2023-03-12T00:43:24.364Z,96675.41
2023-03-12T00:46:01.528Z,96665.50
2023-03-12T00:48:43.419Z,96673.81
2023-03-12T00:51:17.834Z,96678.94
2023-03-12T00:53:52.145Z,96668.00
2023-03-12T00:56:26.448Z,96675.72
2023-03-12T01:02:52.595Z,96683.19
2023-03-12T01:05:27.779Z,96680.75
2023-03-12T01:08:17.230Z,96685.97
2023-03-12T01:11:10.602Z,96683.94
2023-03-12T01:13:46.539Z,96691.75
2023-03-12T01:16:18.390Z,96694.56
2023-03-12T01:18:52.628Z,96696.84
2023-03-12T01:21:27.883Z,96697.41
2023-03-12T01:23:59.869Z,96703.84
2023-03-12T01:26:31.882Z,96716.19
2023-03-12T01:29:03.653Z,96720.66
2023-03-12T01:31:42.693Z,96723.97
2023-03-12T01:34:14.523Z,96710.88
2023-03-12T01:36:50.817Z,96698.72
2023-03-12T01:39:22.632Z,96700.31
2023-03-12T01:41:57.839Z,96686.16
2023-03-12T01:44:54.725Z,96680.34
2023-03-12T01:47:28.619Z,96671.09
2023-03-12T01:50:03.795Z,96684.38
2023-03-12T01:52:42.761Z,96681.50
2023-03-12T01:55:18.108Z,96680.25
2023-03-12T01:57:57.885Z,96675.28
2023-03-12T02:00:32.312Z,96669.63
2023-03-12T02:03:21.115Z,96671.13
2023-03-12T02:06:11.582Z,96678.78
2023-03-12T02:08:50.309Z,96667.91
2023-03-12T02:11:22.101Z,96678.09
2023-03-12T02:13:54.033Z,96675.34
2023-03-12T02:16:26.757Z,96670.06
2023-03-12T02:19:02.333Z,96669.38
2023-03-12T02:21:36.345Z,96665.78
2023-03-12T02:24:23.734Z,96672.72
2023-03-12T02:27:01.570Z,96651.88
2023-03-12T02:29:51.486Z,96650.28
2023-03-12T02:32:48.554Z,96656.94
2023-03-12T02:35:25.582Z,96656.19
2023-03-12T02:38:00.244Z,96658.63
2023-03-12T02:40:46.323Z,96656.97
2023-03-12T02:43:21.780Z,96654.38
2023-03-12T02:45:57.578Z,96650.00
2023-03-12T02:48:38.771Z,96669.53
2023-03-12T02:51:12.915Z,96665.31
2023-03-12T02:54:07.217Z,96677.59
2023-03-12T02:56:50.353Z,96677.38
2023-03-12T02:59:25.203Z,96679.53
2023-03-12T03:02:10.844Z,96676.47
2023-03-12T03:04:42.725Z,96669.69
2023-03-12T03:07:18.432Z,96676.31
2023-03-12T03:10:02.586Z,96672.06
2023-03-12T03:12:41.567Z,96660.13
2023-03-12T03:15:24.921Z,96651.72
2023-03-12T03:18:06.651Z,96651.53
2023-03-12T03:20:41.899Z,96655.22
2023-03-12T03:23:14.065Z,96656.34
2023-03-12T03:25:46.833Z,96645.16
2023-03-12T03:28:27.648Z,96664.06
2023-03-12T03:31:05.413Z,96664.81
2023-03-12T03:33:41.434Z,96668.69
2023-03-12T03:36:20.492Z,96658.06
2023-03-12T03:39:12.216Z,96655.84
2023-03-12T03:41:47.064Z,96653.91
2023-03-12T03:44:26.734Z,96659.28
2023-03-12T03:47:02.010Z,96654.25
2023-03-12T03:49:33.664Z,96664.34
2023-03-12T03:52:05.829Z,96665.31
2023-03-12T03:55:08.237Z,96675.66
2023-03-12T03:57:41.267Z,96683.94
2023-03-12T04:00:18.612Z,96693.72
2023-03-12T04:02:53.245Z,96703.00
2023-03-12T04:05:25.040Z,96707.84
2023-03-12T04:07:59.936Z,96707.28
2023-03-12T04:10:34.723Z,96711.19
2023-03-12T04:13:08.918Z,96705.41
2023-03-12T04:15:52.020Z,96714.75
2023-03-12T04:18:24.742Z,96697.41
2023-03-12T04:21:11.136Z,96696.22
2023-03-12T04:24:18.414Z,96703.31
2023-03-12T04:26:52.278Z,96708.16
2023-03-12T04:30:28.174Z,96703.19
2023-03-12T04:32:36.442Z,96710.69
2023-03-12T04:35:42.429Z,96709.13
2023-03-12T04:38:33.824Z,96709.09
2023-03-12T04:41:12.868Z,96717.03
2023-03-12T04:43:50.722Z,96713.00
2023-03-12T04:46:29.519Z,96712.72
2023-03-12T04:49:07.599Z,96710.53
2023-03-12T04:51:42.567Z,96713.00
2023-03-12T04:54:22.070Z,96713.50
2023-03-12T04:56:55.648Z,96719.13
2023-03-12T04:59:35.535Z,96721.56
2023-03-12T05:02:07.995Z,96721.41
2023-03-12T05:04:41.292Z,96721.56
2023-03-12T05:07:42.072Z,96722.28
2023-03-12T05:10:26.328Z,96723.44
2023-03-12T05:13:00.437Z,96712.63
2023-03-12T05:15:45.214Z,96717.09
2023-03-12T05:18:19.758Z,96719.50
2023-03-12T05:21:07.088Z,96731.25
2023-03-12T05:23:41.850Z,96726.47
2023-03-12T05:26:23.536Z,96740.72
2023-03-12T05:29:02.426Z,96733.91
2023-03-12T05:31:34.473Z,96737.41
2023-03-12T05:34:12.488Z,96740.09
2023-03-12T05:36:50.188Z,96737.25
2023-03-12T05:39:33.193Z,96751.16
2023-03-12T05:42:09.238Z,96740.75
2023-03-12T05:44:43.494Z,96742.66
2023-03-12T05:47:20.299Z,96741.94
2023-03-12T05:49:54.568Z,96737.16
2023-03-12T05:52:51.341Z,96745.59
2023-03-12T05:55:30.363Z,96739.81
2023-03-12T05:58:20.217Z,96736.44
2023-03-12T06:01:11.314Z,96744.22
2023-03-12T06:03:53.100Z,96747.59
2023-03-12T06:06:34.997Z,96761.22
2023-03-12T06:09:07.339Z,96763.88
2023-03-12T06:11:39.431Z,96764.16
2023-03-12T06:14:21.277Z,96767.88
2023-03-12T06:17:44.791Z,96764.31
2023-03-12T06:19:51.780Z,96776.78
2023-03-12T06:22:28.904Z,96774.72
2023-03-12T06:25:02.357Z,96775.19
2023-03-12T06:27:34.355Z,96770.44
2023-03-12T06:30:11.251Z,96772.34
2023-03-12T06:32:45.612Z,96793.41
2023-03-12T06:35:24.563Z,96784.00
2023-03-12T06:37:56.475Z,96785.66
2023-03-12T06:40:30.209Z,96781.16
2023-03-12T06:43:01.961Z,96783.16
2023-03-12T06:45:41.351Z,96778.84
2023-03-12T06:48:17.878Z,96790.56
2023-03-12T06:50:55.024Z,96778.69
2023-03-12T06:53:37.904Z,96796.47
2023-03-12T06:56:13.090Z,96796.25
2023-03-12T06:58:47.210Z,96794.09
2023-03-12T07:01:21.651Z,96795.38
2023-03-12T07:04:02.467Z,96802.16
2023-03-12T07:07:00.936Z,96810.25
2023-03-12T07:09:33.232Z,96813.69
2023-03-12T07:12:05.394Z,96824.81
2023-03-12T07:14:40.073Z,96828.81
2023-03-12T07:17:11.684Z,96837.09
2023-03-12T07:19:43.242Z,96834.72
2023-03-12T07:22:15.866Z,96844.00
2023-03-12T07:24:47.447Z,96840.50
2023-03-12T07:27:25.509Z,96840.22
2023-03-12T07:29:57.134Z,96841.81
2023-03-12T07:32:31.481Z,96843.25
2023-03-12T07:35:07.462Z,96851.59
2023-03-12T07:37:39.075Z,96858.03
2023-03-12T07:40:12.581Z,96846.41
2023-03-12T07:42:48.397Z,96847.25
2023-03-12T07:45:22.489Z,96847.91
2023-03-12T07:48:01.742Z,96845.69
2023-03-12T07:50:39.185Z,96843.53
2023-03-12T07:53:13.069Z,96852.41
2023-03-12T07:55:48.156Z,96862.31
2023-03-12T07:58:20.026Z,96862.69
2023-03-12T08:00:52.844Z,96864.31
2023-03-12T08:03:27.053Z,96874.28
2023-03-12T08:06:01.826Z,96876.63
2023-03-12T08:08:34.559Z,96882.97
2023-03-12T08:11:06.154Z,96886.75
2023-03-12T08:13:38.140Z,96888.50
2023-03-12T08:16:11.975Z,96894.47
2023-03-12T08:19:00.043Z,96894.25
2023-03-12T08:21:35.549Z,96900.91
2023-03-12T08:24:08.288Z,96900.81
2023-03-12T08:26:40.805Z,96894.44
2023-03-12T08:29:13.281Z,96903.69
2023-03-12T08:32:01.469Z,96907.06
2023-03-12T08:34:37.973Z,96915.50
2023-03-12T08:37:09.642Z,96914.34
2023-03-12T08:39:41.228Z,96920.38
2023-03-12T08:42:12.813Z,96916.94
2023-03-12T08:44:44.370Z,96936.19
2023-03-12T08:47:16.084Z,96931.75
2023-03-12T08:49:47.711Z,96917.56
2023-03-12T08:52:19.358Z,96928.50
2023-03-12T08:54:50.992Z,96918.69
2023-03-12T08:57:22.607Z,96927.19
2023-03-12T08:59:54.333Z,96928.13
2023-03-12T09:02:25.969Z,96936.34
2023-03-12T09:04:57.649Z,96936.78
2023-03-12T09:07:31.838Z,96943.63
2023-03-12T09:10:04.317Z,96940.78
2023-03-12T09:12:35.939Z,96937.44
2023-03-12T09:15:08.572Z,96946.06
2023-03-12T09:17:40.649Z,96947.56
2023-03-12T09:20:12.594Z,96947.00
2023-03-12T09:22:44.242Z,96956.56
2023-03-12T09:25:16.548Z,96958.59
2023-03-12T09:27:48.164Z,96953.59
2023-03-12T09:30:21.853Z,96959.69
2023-03-12T09:32:53.816Z,96972.63
2023-03-12T09:35:25.478Z,96980.41
2023-03-12T09:37:58.222Z,96977.41
2023-03-12T09:40:33.637Z,96979.59
2023-03-12T09:43:18.932Z,96987.41
2023-03-12T09:45:52.246Z,96969.50
2023-03-12T09:48:32.979Z,96962.91
2023-03-12T09:51:33.443Z,96957.88
2023-03-12T09:54:17.500Z,96967.38
2023-03-12T09:56:52.812Z,96986.69
2023-03-12T09:59:24.466Z,96974.75
2023-03-12T10:02:18.103Z,96982.00
2023-03-12T10:05:09.573Z,96986.91
2023-03-12T10:08:07.595Z,96987.25
2023-03-12T10:11:02.290Z,96991.69
2023-03-12T10:13:55.652Z,96990.25
2023-03-12T10:16:45.769Z,96992.63
2023-03-12T10:19:40.031Z,96987.19
2023-03-12T10:22:29.988Z,97001.31
2023-03-12T10:25:07.550Z,96987.50
2023-03-12T10:27:41.193Z,97004.50
2023-03-12T10:30:28.969Z,97010.56
2023-03-12T10:33:03.963Z,97014.13
2023-03-12T10:35:36.447Z,97018.84
2023-03-12T10:38:17.776Z,97002.28
2023-03-12T10:40:49.384Z,97008.25
2023-03-12T10:43:21.211Z,97004.69
2023-03-12T10:45:55.715Z,97001.03
2023-03-12T10:48:27.626Z,97001.03
2023-03-12T10:51:02.166Z,97008.22
2023-03-12T10:53:45.089Z,97009.72
2023-03-12T10:56:19.484Z,96991.53
2023-03-12T10:58:53.595Z,97012.59
2023-03-12T11:01:31.013Z,97011.47
2023-03-12T11:04:17.604Z,97025.84
2023-03-12T11:07:16.371Z,97031.50
2023-03-12T11:10:06.279Z,97031.06
2023-03-12T11:12:39.652Z,97035.16
2023-03-12T11:15:23.222Z,97030.44
2023-03-12T11:18:26.241Z,97037.28
2023-03-12T11:21:15.791Z,97043.47
2023-03-12T11:24:09.532Z,97054.47
2023-03-12T11:26:51.654Z,97050.91
2023-03-12T11:29:26.209Z,97043.78
2023-03-12T11:32:04.758Z,97038.63
2023-03-12T11:34:39.551Z,97056.44
2023-03-12T11:37:21.523Z,97055.81
2023-03-12T11:40:12.676Z,97058.75
2023-03-12T11:42:59.589Z,97051.47
2023-03-12T11:45:47.682Z,97051.72
2023-03-12T11:48:33.588Z,97050.88
2023-03-12T11:51:27.176Z,97041.91
2023-03-12T11:54:25.170Z,97049.03
2023-03-12T11:57:10.136Z,97041.72
2023-03-12T12:00:09.135Z,97040.84
2023-03-12T12:02:43.291Z,97047.38
2023-03-12T12:05:20.605Z,97039.53
2023-03-12T12:08:10.339Z,97033.63
2023-03-12T12:11:00.625Z,97022.34
2023-03-12T12:13:53.407Z,97021.88
2023-03-12T12:16:42.745Z,97013.47
2023-03-12T12:19:32.872Z,97006.53
2023-03-12T12:22:29.430Z,97009.78
2023-03-12T12:25:13.423Z,97000.44
2023-03-12T12:28:30.018Z,97002.19
2023-03-12T12:31:02.107Z,96991.06
2023-03-12T12:33:51.468Z,96990.44
2023-03-12T12:36:27.325Z,96984.50
2023-03-12T12:39:09.153Z,96989.47
2023-03-12T12:42:06.005Z,96994.50
2023-03-12T12:44:46.439Z,96994.72
2023-03-12T12:47:40.541Z,96994.50
2023-03-12T12:50:19.221Z,96997.78
2023-03-12T12:53:09.009Z,96985.94
2023-03-12T12:56:22.049Z,96991.66
2023-03-12T12:59:01.228Z,96988.63
2023-03-12T13:01:36.257Z,96983.28
2023-03-12T13:04:19.979Z,96985.63
2023-03-12T13:07:00.145Z,96984.94
2023-03-12T13:09:38.165Z,96987.03
2023-03-12T13:12:27.157Z,96993.09
2023-03-12T13:15:01.343Z,96989.59
2023-03-12T13:17:58.630Z,96978.59
2023-03-12T13:20:52.105Z,96976.03
2023-03-12T13:23:41.183Z,96978.16
2023-03-12T13:26:28.612Z,96978.06
2023-03-12T13:29:22.852Z,96975.75
2023-03-12T13:31:54.962Z,96972.28
2023-03-12T13:34:28.135Z,96970.78
2023-03-12T13:37:03.101Z,96969.19
2023-03-12T13:39:36.715Z,96959.63
2023-03-12T13:42:24.032Z,96955.13
2023-03-12T13:44:56.081Z,96952.25
2023-03-12T13:47:36.701Z,96951.00
2023-03-12T13:50:15.616Z,96944.13
2023-03-12T13:53:02.954Z,96940.00
2023-03-12T13:55:37.660Z,96937.97
2023-03-12T13:58:12.389Z,96928.56
2023-03-12T14:00:59.274Z,96927.38
2023-03-12T14:03:41.703Z,96931.66
2023-03-12T14:06:18.505Z,96911.84
2023-03-12T14:08:59.144Z,96920.56
2023-03-12T14:11:48.462Z,96921.09
2023-03-12T14:14:57.413Z,96926.50
2023-03-12T14:17:32.860Z,96925.66
2023-03-12T14:20:04.831Z,96930.13
2023-03-12T14:22:42.397Z,96920.75
2023-03-12T14:25:31.676Z,96913.53
2023-03-12T14:28:11.297Z,96909.84
2023-03-12T14:31:09.249Z,96909.03
2023-03-12T14:34:03.853Z,96906.44
2023-03-12T14:36:46.681Z,96908.50
2023-03-12T14:39:18.587Z,96916.56
2023-03-12T14:41:59.748Z,96916.44
2023-03-12T14:44:34.922Z,96906.25
2023-03-12T14:47:17.731Z,96901.91
2023-03-12T14:49:49.427Z,96903.44
2023-03-12T14:52:24.614Z,96893.13
2023-03-12T14:55:03.992Z,96891.25
2023-03-12T14:57:35.842Z,96882.78
2023-03-12T15:00:08.270Z,96895.03
2023-03-12T15:02:42.437Z,96892.50
2023-03-12T15:05:18.471Z,96887.91
2023-03-12T15:07:57.062Z,96889.72
2023-03-12T15:10:32.599Z,96888.03
2023-03-12T15:13:04.885Z,96894.44
2023-03-12T15:15:41.417Z,96888.78
2023-03-12T15:18:20.670Z,96900.28
2023-03-12T15:20:54.029Z,96887.69
2023-03-12T15:23:30.744Z,96893.13
2023-03-12T15:26:14.330Z,96895.38
2023-03-12T15:29:00.527Z,96893.34
2023-03-12T15:31:49.291Z,96891.72
2023-03-12T15:34:45.039Z,96889.41
2023-03-12T15:37:30.433Z,96880.16
2023-03-12T15:40:06.839Z,96871.53
2023-03-12T15:42:44.288Z,96878.91
2023-03-12T15:45:24.524Z,96884.66
2023-03-12T15:47:56.902Z,96888.81
2023-03-12T15:50:42.747Z,96878.63
2023-03-12T15:53:14.637Z,96867.75
2023-03-12T15:56:15.569Z,96865.88
2023-03-12T15:58:58.432Z,96872.31
2023-03-12T16:01:30.149Z,96870.72
2023-03-12T16:04:01.812Z,96861.25
2023-03-12T16:06:33.737Z,96864.31
2023-03-12T16:09:05.833Z,96867.28
2023-03-12T16:11:37.964Z,96859.44
2023-03-12T16:14:24.346Z,96864.50
2023-03-12T16:16:56.056Z,96857.03
2023-03-12T16:19:31.931Z,96859.44
2023-03-12T16:22:03.588Z,96855.00
2023-03-12T16:24:35.162Z,96855.69
2023-03-12T16:27:18.027Z,96856.22
2023-03-12T16:29:52.437Z,96843.91
2023-03-12T16:32:24.277Z,96855.47
2023-03-12T16:34:55.919Z,96847.03
2023-03-12T16:37:27.662Z,96846.28
2023-03-12T16:39:59.321Z,96847.41
2023-03-12T16:42:30.947Z,96849.91
2023-03-12T16:45:03.546Z,96838.53
2023-03-12T16:47:35.548Z,96832.03
2023-03-12T16:50:17.590Z,96825.75
2023-03-12T16:52:50.281Z,96831.41
2023-03-12T16:55:26.929Z,96822.94
2023-03-12T16:58:02.080Z,96826.53
2023-03-12T17:00:34.503Z,96831.25
2023-03-12T17:03:06.484Z,96835.53
2023-03-12T17:05:38.064Z,96844.91
2023-03-12T17:08:09.626Z,96836.22
2023-03-12T17:10:41.421Z,96841.41
2023-03-12T17:13:19.871Z,96841.53
2023-03-12T17:15:52.671Z,96839.78
2023-03-12T17:18:24.296Z,96845.63
2023-03-12T17:20:56.505Z,96850.75
2023-03-12T17:23:28.119Z,96851.63
2023-03-12T17:25:59.761Z,96850.91
2023-03-12T17:28:31.655Z,96855.13
2023-03-12T17:31:03.925Z,96853.50
2023-03-12T17:33:35.830Z,96859.31
2023-03-12T17:36:09.524Z,96862.25
2023-03-12T17:38:41.192Z,96858.09
2023-03-12T17:41:25.478Z,96861.88
2023-03-12T17:43:59.129Z,96856.53
2023-03-12T17:46:30.894Z,96859.19
2023-03-12T17:49:02.581Z,96858.91
2023-03-12T17:51:34.190Z,96859.09
2023-03-12T17:54:05.793Z,96860.81
2023-03-12T17:56:37.389Z,96878.25
2023-03-12T17:59:08.978Z,96870.88
2023-03-12T18:01:40.540Z,96877.63
2023-03-12T18:04:12.225Z,96875.56
2023-03-12T18:06:43.832Z,96881.78
2023-03-12T18:09:15.788Z,96876.53
2023-03-12T18:11:47.420Z,96879.66
2023-03-12T18:14:19.030Z,96876.81
2023-03-12T18:16:50.716Z,96886.75
2023-03-12T18:19:22.401Z,96888.91
2023-03-12T18:21:53.993Z,96896.06
2023-03-12T18:24:25.561Z,96898.06
2023-03-12T18:26:57.234Z,96887.66
2023-03-12T18:29:28.950Z,96891.75
2023-03-12T18:32:00.616Z,96894.91
2023-03-12T18:34:32.213Z,96901.75
2023-03-12T18:37:03.779Z,96909.19
2023-03-12T18:39:35.435Z,96903.88
2023-03-12T18:42:06.985Z,96908.50
2023-03-12T18:44:38.555Z,96920.13
2023-03-12T18:47:10.402Z,96931.25
2023-03-12T18:49:41.995Z,96924.25
2023-03-12T18:52:13.559Z,96933.75
2023-03-12T18:54:45.147Z,96939.22
2023-03-12T18:57:16.803Z,96946.84
2023-03-12T18:59:48.465Z,96937.63
2023-03-12T19:02:20.086Z,96942.00
2023-03-12T19:04:54.117Z,96932.47
2023-03-12T19:07:27.159Z,96939.88
2023-03-12T19:09:59.314Z,96940.22
2023-03-12T19:12:36.605Z,96948.81
2023-03-12T19:15:11.521Z,96954.41
2023-03-12T19:17:43.132Z,96951.50
2023-03-12T19:20:14.930Z,96952.63
2023-03-12T19:22:46.586Z,96955.78
2023-03-12T19:25:18.404Z,96956.44
2023-03-12T19:27:50.221Z,96955.88
2023-03-12T19:30:21.874Z,96955.19
2023-03-12T19:32:53.553Z,96954.34
2023-03-12T19:35:25.458Z,96960.78
2023-03-12T19:37:57.190Z,96961.69
2023-03-12T19:40:28.883Z,96961.00
2023-03-12T19:43:01.864Z,96968.81
2023-03-12T19:45:35.732Z,96969.31
2023-03-12T19:48:07.535Z,96981.78
2023-03-12T19:50:39.268Z,96984.34
2023-03-12T19:53:11.384Z,96984.75
2023-03-12T19:55:46.815Z,96985.50
2023-03-12T19:58:18.574Z,96984.31
2023-03-12T20:00:50.223Z,96982.03
2023-03-12T20:03:21.942Z,96984.28
2023-03-12T20:05:53.550Z,96981.13
2023-03-12T20:08:25.273Z,96984.75
2023-03-12T20:11:05.351Z,96977.53
2023-03-12T20:13:37.329Z,96971.25
2023-03-12T20:16:09.107Z,96975.50
2023-03-12T20:18:40.828Z,96972.50
2023-03-12T20:21:12.500Z,96978.53
2023-03-12T20:23:44.207Z,96973.47
2023-03-12T20:26:16.079Z,96968.47
2023-03-12T20:28:47.784Z,96972.03
2023-03-12T20:31:19.558Z,96974.28
2023-03-12T20:33:51.263Z,96975.59
2023-03-12T20:36:22.978Z,96983.50
2023-03-12T20:38:54.649Z,96986.94
2023-03-12T20:41:26.351Z,96971.25
2023-03-12T20:43:57.913Z,96954.78
2023-03-12T20:46:29.578Z,96958.13
2023-03-12T20:49:01.119Z,96964.94
2023-03-12T20:51:32.760Z,96959.50
2023-03-12T20:54:04.412Z,96964.41
2023-03-12T20:56:36.114Z,96964.63
2023-03-12T20:59:07.763Z,96965.00
2023-03-12T21:01:39.454Z,96970.19
2023-03-12T21:04:11.280Z,96967.00
2023-03-12T21:06:43.001Z,96963.19
2023-03-12T21:09:14.585Z,96957.06
2023-03-12T21:11:46.181Z,96965.03
2023-03-12T21:14:17.843Z,96960.84
2023-03-12T21:16:49.539Z,96962.19
2023-03-12T21:19:23.157Z,96962.97
2023-03-12T21:21:54.894Z,96966.66
2023-03-12T21:24:26.566Z,96953.88
2023-03-12T21:26:58.166Z,96952.16
2023-03-12T21:29:29.895Z,96943.03
2023-03-12T21:32:01.605Z,96933.25
2023-03-12T21:34:33.264Z,96940.75
2023-03-12T21:37:04.931Z,96931.19
2023-03-12T21:39:36.552Z,96931.63
2023-03-12T21:42:08.362Z,96934.47
2023-03-12T21:44:40.195Z,96943.03
2023-03-12T21:47:11.874Z,96936.69
2023-03-12T21:49:44.036Z,96929.75
2023-03-12T21:52:15.798Z,96926.44
2023-03-12T21:54:47.661Z,96931.19
2023-03-12T21:57:19.312Z,96934.94
2023-03-12T21:59:50.965Z,96932.69
2023-03-12T22:02:22.617Z,96932.25
2023-03-12T22:04:54.339Z,96929.84
2023-03-12T22:07:25.980Z,96920.22
2023-03-12T22:09:57.693Z,96928.50
2023-03-12T22:12:29.336Z,96925.28
2023-03-12T22:15:00.983Z,96925.25
2023-03-12T22:17:32.565Z,96922.50
2023-03-12T22:20:04.879Z,96923.97
2023-03-12T22:22:36.488Z,96914.88
2023-03-12T22:25:08.533Z,96927.13
2023-03-12T22:27:40.118Z,96924.47
2023-03-12T22:30:12.196Z,96925.03
2023-03-12T22:32:43.853Z,96916.28
2023-03-12T22:35:15.504Z,96922.22
2023-03-12T22:37:47.180Z,96920.22
2023-03-12T22:40:19.156Z,96924.47
2023-03-12T22:42:51.439Z,96920.13
2023-03-12T22:45:23.391Z,96919.13
2023-03-12T22:47:55.039Z,96921.66
2023-03-12T22:50:27.224Z,96912.72
2023-03-12T22:52:59.243Z,96918.28
2023-03-12T22:55:31.002Z,96912.84
2023-03-12T22:58:02.740Z,96907.22
2023-03-12T23:00:34.376Z,96904.91
2023-03-12T23:03:06.119Z,96893.47
2023-03-12T23:05:37.769Z,96897.50
2023-03-12T23:08:09.573Z,96885.78
2023-03-12T23:10:41.269Z,96883.63
2023-03-12T23:13:12.885Z,96892.00
2023-03-12T23:15:44.574Z,96886.03
2023-03-12T23:18:18.157Z,96885.09
2023-03-12T23:20:58.494Z,96877.91
2023-03-12T23:23:30.713Z,96886.66
2023-03-12T23:26:03.109Z,96884.59
2023-03-12T23:28:34.848Z,96870.81
2023-03-12T23:31:08.957Z,96873.72
2023-03-12T23:33:40.840Z,96869.56
2023-03-12T23:36:15.758Z,96866.13
2023-03-12T23:38:49.203Z,96860.56
2023-03-12T23:41:26.975Z,96867.56
2023-03-12T23:43:59.691Z,96871.25
2023-03-12T23:46:32.185Z,96873.94
2023-03-12T23:49:03.894Z,96869.00
2023-03-12T23:51:37.959Z,96870.41
2023-03-12T23:54:09.646Z,96875.03
2023-03-12T23:56:41.632Z,96868.19
2023-03-12T23:59:13.492Z,96877.56
